Time;durP1;ratioP1;P1;durP2;ratioP2;P2;SDS_P1;SDS_P2;PMS_P1;PMS_P2;Temp;Humidity;BMP_temperature;BMP_pressure;BME280_temperature;BME280_humidity;BME280_pressure;Samples;Min_cycle;Max_cycle;Signal;HPM_P1;HPM_P2
2023/12/05 00:02:22;;;;;;;47.85;37.08;;;4.50;99.90;;;4.70;100.00;99726.06;5114815;28;20227;-66
2023/12/05 00:04:51;;;;;;;49.03;36.40;;;4.70;99.90;;;4.75;100.00;99732.19;5114334;28;20127;-66
2023/12/05 00:07:22;;;;;;;49.95;37.20;;;4.70;99.90;;;4.74;100.00;99736.56;5114528;28;20039;-66
2023/12/05 00:09:51;;;;;;;51.73;37.03;;;4.70;99.90;;;4.59;100.00;99724.31;5114100;28;20481;-66
2023/12/05 00:12:20;;;;;;;49.87;37.37;;;4.60;99.90;;;4.63;100.00;99735.66;5114141;28;20067;-66
2023/12/05 00:14:48;;;;;;;48.83;37.80;;;4.60;99.90;;;4.81;100.00;99730.44;5114044;28;20044;-66
2023/12/05 00:17:16;;;;;;;49.90;38.58;;;4.70;99.90;;;4.85;100.00;99715.59;5113961;28;20071;-66
2023/12/05 00:19:45;;;;;;;47.57;36.67;;;4.80;99.90;;;4.91;100.00;99729.56;5113944;28;20063;-66
2023/12/05 00:22:14;;;;;;;48.25;37.38;;;4.90;99.90;;;5.03;100.00;99741.81;5095866;28;20052;-66
2023/12/05 00:24:43;;;;;;;46.60;36.88;;;4.90;99.90;;;4.89;100.00;99733.94;5113823;28;20493;-66
2023/12/05 00:27:12;;;;;;;47.88;36.03;;;4.90;99.90;;;4.84;100.00;99729.59;5113810;28;20473;-66
2023/12/05 00:29:41;;;;;;;47.70;36.47;;;4.80;99.90;;;4.84;100.00;99727.81;5095610;28;20062;-66
2023/12/05 00:32:09;;;;;;;48.40;36.88;;;4.80;99.90;;;4.84;100.00;99719.09;5113727;28;20561;-66
2023/12/05 00:34:37;;;;;;;49.33;38.17;;;4.80;99.90;;;5.04;100.00;99722.56;5113917;28;20073;-66
2023/12/05 00:37:06;;;;;;;46.97;37.30;;;4.90;99.90;;;5.15;100.00;99720.84;5113617;28;20044;-66
2023/12/05 00:39:36;;;;;;;52.77;39.50;;;5.00;99.90;;;5.23;100.00;99732.16;5113546;28;20101;-66
2023/12/05 00:42:04;;;;;;;46.60;36.60;;;5.10;99.90;;;5.27;100.00;99726.91;5114052;28;20041;-66
2023/12/05 00:44:33;;;;;;;44.75;36.47;;;5.20;99.90;;;5.30;100.00;99721.66;5095552;28;20400;-66
2023/12/05 00:47:04;;;;;;;47.05;36.55;;;5.30;99.90;;;5.30;100.00;99736.53;5113459;28;20040;-66
2023/12/05 00:49:34;;;;;;;45.25;36.22;;;5.20;99.90;;;5.35;100.00;99724.28;5113507;28;20473;-66
2023/12/05 00:52:02;;;;;;;46.30;36.77;;;5.30;99.90;;;5.36;100.00;99729.50;5113798;28;20243;-66
2023/12/05 00:54:31;;;;;;;47.35;36.60;;;5.30;99.90;;;5.32;100.00;99730.38;5113682;28;20088;-66
2023/12/05 00:57:01;;;;;;;48.67;37.25;;;5.30;99.90;;;5.28;100.00;99726.03;5113570;28;20067;-67
2023/12/05 00:59:29;;;;;;;47.35;36.55;;;5.20;99.90;;;5.33;100.00;99723.41;5113906;28;20429;-66
2023/12/05 01:01:58;;;;;;;47.85;37.72;;;5.20;99.90;;;5.35;100.00;99725.16;5095283;28;20051;-67
2023/12/05 01:04:26;;;;;;;46.78;36.35;;;5.30;99.90;;;5.37;100.00;99718.16;5112592;28;20718;-67
2023/12/05 01:06:55;;;;;;;49.53;38.08;;;5.30;99.90;;;5.37;100.00;99720.78;5072633;28;20040;-66
2023/12/05 01:09:24;;;;;;;45.63;35.42;;;5.40;99.90;;;5.01;100.00;99664.94;5072919;28;20076;-66
2023/12/05 01:11:52;;;;;;;46.67;35.83;;;5.40;99.90;;;5.30;100.00;99718.19;5072518;28;20033;-66
2023/12/05 01:14:22;;;;;;;47.38;36.72;;;5.20;99.90;;;5.23;100.00;99725.16;5073031;28;20059;-66
2023/12/05 01:16:51;;;;;;;47.97;36.88;;;5.20;99.90;;;5.16;100.00;99723.44;5072568;28;20072;-66
2023/12/05 01:19:19;;;;;;;48.23;37.63;;;5.10;99.90;;;5.14;100.00;99724.31;5072523;28;20040;-67
2023/12/05 01:21:47;;;;;;;50.40;36.93;;;5.10;99.90;;;5.16;100.00;99730.44;5072471;28;20044;-66
2023/12/05 01:24:16;;;;;;;47.33;37.35;;;5.20;99.90;;;5.24;100.00;99731.28;5072486;28;20048;-67
2023/12/05 01:26:45;;;;;;;48.88;38.13;;;5.20;99.90;;;5.23;100.00;99724.28;5072454;28;20051;-66
2023/12/05 01:29:13;;;;;;;50.13;38.00;;;5.20;99.90;;;5.32;100.00;99743.50;5072747;28;20048;-66
2023/12/05 01:31:43;;;;;;;50.20;39.15;;;5.20;99.90;;;4.96;100.00;99700.75;5072316;28;20478;-67
2023/12/05 01:34:11;;;;;;;51.42;39.60;;;5.10;99.90;;;4.96;100.00;99688.53;5072705;28;20052;-67
2023/12/05 01:36:40;;;;;;;49.45;37.97;;;5.20;99.90;;;5.29;100.00;99738.25;5072637;28;20497;-67
2023/12/05 01:39:08;;;;;;;48.33;38.45;;;5.20;99.90;;;5.36;100.00;99729.50;5071355;28;20040;-67
2023/12/05 01:41:37;;;;;;;53.58;40.88;;;5.20;99.90;;;5.44;100.00;99735.59;5072289;28;20036;-66
2023/12/05 01:44:05;;;;;;;48.63;38.45;;;5.40;99.90;;;5.50;100.00;99729.47;5072051;28;20049;-66
2023/12/05 01:46:34;;;;;;;52.40;41.08;;;5.40;99.90;;;5.44;100.00;99724.25;5072204;28;20102;-67
2023/12/05 01:49:05;;;;;;;54.75;40.55;;;5.50;99.90;;;5.52;100.00;99737.38;5072170;28;20087;-66
2023/12/05 01:51:42;;;;;;;49.08;38.00;;;5.50;99.90;;;5.60;100.00;99740.81;5072237;28;20045;-67
2023/12/05 01:54:11;;;;;;;52.03;39.65;;;5.50;99.90;;;5.65;100.00;99744.31;5072153;28;20631;-66
2023/12/05 01:56:39;;;;;;;52.47;39.73;;;5.60;99.90;;;5.64;100.00;99743.44;5072177;28;20045;-66
2023/12/05 01:59:08;;;;;;;50.17;38.63;;;5.60;99.90;;;5.60;100.00;99743.44;5072141;28;20068;-67
2023/12/05 02:01:36;;;;;;;54.38;41.25;;;5.50;99.90;;;5.60;100.00;99739.06;5072072;28;20064;-67
2023/12/05 02:04:07;;;;;;;52.55;39.80;;;5.50;99.90;;;5.64;100.00;99743.44;5072041;28;20051;-66
2023/12/05 02:06:35;;;;;;;54.20;40.42;;;5.60;99.90;;;5.58;100.00;99748.69;5108348;28;20209;-67
2023/12/05 02:09:05;;;;;;;55.55;40.33;;;5.50;99.90;;;5.54;100.00;99749.56;5112537;28;20050;-67
2023/12/05 02:11:34;;;;;;;54.47;40.00;;;5.50;99.90;;;5.60;100.00;99746.94;5112395;28;20040;-66
2023/12/05 02:14:04;;;;;;;58.35;42.28;;;5.50;99.90;;;5.58;100.00;99753.94;5112557;28;20656;-67
2023/12/05 02:16:38;;;;;;;51.35;40.20;;;5.50;99.90;;;5.56;100.00;99750.44;5116155;28;20122;-67
2023/12/05 02:19:41;;;;;;;52.30;40.20;;;5.50;99.90;;;5.52;100.00;99747.84;5116654;28;20100;-66
2023/12/05 02:22:22;;;;;;;55.33;40.92;;;5.50;99.90;;;5.48;100.00;99746.97;5116255;28;20046;-67
2023/12/05 02:25:02;;;;;;;58.70;41.88;;;5.50;99.90;;;5.48;100.00;99752.19;5098243;28;20054;-66
2023/12/05 02:27:37;;;;;;;55.70;42.08;;;5.40;99.90;;;5.43;100.00;99753.97;5116795;28;20035;-67
2023/12/05 02:30:08;;;;;;;60.55;43.80;;;5.40;99.90;;;5.46;100.00;99746.09;5116306;28;20404;-66
2023/12/05 02:32:37;;;;;;;53.38;39.38;;;5.40;99.90;;;5.55;100.00;99743.47;5116039;28;20047;-66
2023/12/05 02:35:07;;;;;;;54.10;40.47;;;5.50;99.90;;;5.52;100.00;99748.69;5116245;28;20050;-66
2023/12/05 02:37:45;;;;;;;57.13;42.17;;;5.50;99.90;;;5.57;100.00;99751.31;5098015;28;20047;-66
2023/12/05 02:40:19;;;;;;;52.53;38.80;;;5.50;99.90;;;5.56;100.00;99749.56;5115937;28;20451;-66
2023/12/05 02:42:53;;;;;;;54.70;40.77;;;5.50;99.90;;;5.41;100.00;99732.13;5116459;28;20437;-66
2023/12/05 02:45:22;;;;;;;53.83;39.40;;;5.40;99.90;;;5.60;100.00;99740.81;5115885;28;20039;-67
2023/12/05 02:47:51;;;;;;;54.05;40.50;;;5.50;99.90;;;5.62;100.00;99750.44;5115805;28;20032;-67
2023/12/05 02:50:20;;;;;;;51.17;38.53;;;5.50;99.90;;;5.56;100.00;99749.56;5115734;28;20069;-66
2023/12/05 02:52:48;;;;;;;49.53;37.53;;;5.50;99.90;;;4.77;100.00;99603.00;5097571;28;20048;-67
2023/12/05 02:55:16;;;;;;;46.05;35.60;;;5.50;99.90;;;5.56;100.00;99749.56;5115602;28;20040;-67
2023/12/05 02:57:45;;;;;;;49.60;37.10;;;5.50;99.90;;;5.55;100.00;99751.34;5115819;28;20126;-66
2023/12/05 03:00:16;;;;;;;50.33;37.20;;;5.50;99.90;;;5.54;100.00;99754.81;5115839;28;20067;-67
2023/12/05 03:02:45;;;;;;;51.97;38.05;;;5.50;99.90;;;5.57;100.00;99757.44;5115527;28;20044;-66
2023/12/05 03:05:14;;;;;;;47.30;35.70;;;5.50;99.90;;;5.57;100.00;99753.94;5097309;28;20067;-66
2023/12/05 03:07:42;;;;;;;48.33;35.58;;;5.50;99.90;;;5.59;100.00;99758.31;5115664;28;20481;-66
2023/12/05 03:10:10;;;;;;;46.47;35.42;;;5.50;99.90;;;5.55;100.00;99746.09;5115318;28;20039;-67
2023/12/05 03:12:39;;;;;;;44.53;34.33;;;5.50;99.90;;;5.56;100.00;99755.69;5115193;28;20047;-66
2023/12/05 03:15:09;;;;;;;47.90;35.90;;;5.50;99.90;;;5.50;100.00;99745.22;5115252;28;20089;-67
2023/12/05 03:17:40;;;;;;;45.27;34.57;;;5.40;99.90;;;5.48;100.00;99758.31;5115220;28;20066;-66
2023/12/05 03:20:10;;;;;;;46.97;35.90;;;5.40;99.90;;;5.45;100.00;99755.72;5097111;28;20285;-66
2023/12/05 03:22:38;;;;;;;46.00;34.70;;;5.40;99.90;;;5.46;100.00;99759.19;5115366;28;20043;-67
2023/12/05 03:25:08;;;;;;;44.65;34.45;;;5.40;99.90;;;5.32;100.00;99735.63;5115026;28;20104;-67
2023/12/05 03:27:36;;;;;;;46.35;34.67;;;5.40;99.90;;;5.47;100.00;99760.97;5114622;28;20039;-67
2023/12/05 03:30:06;;;;;;;46.75;34.58;;;5.40;99.90;;;5.42;100.00;99758.34;5096884;28;20090;-66
2023/12/05 03:32:35;;;;;;;45.70;34.80;;;5.40;99.90;;;5.39;100.00;99757.47;5115301;28;20040;-67
2023/12/05 03:35:06;;;;;;;42.92;32.90;;;5.40;99.90;;;5.34;100.00;99752.22;5114806;28;20500;-66
2023/12/05 03:37:35;;;;;;;47.33;35.30;;;5.40;99.90;;;4.39;100.00;99589.94;5096848;28;20047;-67
2023/12/05 03:40:04;;;;;;;45.92;33.80;;;5.20;99.90;;;5.29;100.00;99761.84;5114701;28;20046;-67
2023/12/05 03:42:32;;;;;;;46.40;34.17;;;5.30;99.90;;;5.21;100.00;99736.53;5115041;28;20032;-66
2023/12/05 03:45:01;;;;;;;45.10;33.67;;;5.30;99.90;;;5.31;100.00;99751.38;5114613;28;20397;-66
2023/12/05 03:47:29;;;;;;;44.45;33.50;;;5.30;99.90;;;5.38;100.00;99753.97;5114591;28;20051;-67
2023/12/05 03:49:58;;;;;;;46.47;34.03;;;5.40;99.90;;;5.42;100.00;99754.84;5114827;28;20396;-66
2023/12/05 03:52:27;;;;;;;42.25;32.85;;;5.40;99.90;;;5.43;100.00;99764.47;5114418;28;20055;-66
2023/12/05 03:54:57;;;;;;;44.92;33.58;;;5.40;99.90;;;5.22;100.00;99738.28;5115087;28;20131;-67
2023/12/05 03:57:25;;;;;;;41.70;31.43;;;5.40;99.90;;;5.44;100.00;99766.19;5114442;28;20056;-66
2023/12/05 03:59:53;;;;;;;42.92;31.83;;;5.40;99.90;;;5.49;100.00;99775.81;5096429;28;20382;-67
2023/12/05 04:02:22;;;;;;;42.00;31.60;;;5.40;99.90;;;5.55;100.00;99787.16;5114589;28;20040;-66
2023/12/05 04:04:50;;;;;;;42.70;32.47;;;5.50;99.90;;;5.61;100.00;99789.78;5114087;28;20446;-66
2023/12/05 04:07:19;;;;;;;40.13;30.92;;;5.50;99.90;;;5.60;100.00;99791.53;5114269;28;20378;-67
2023/12/05 04:09:48;;;;;;;37.67;29.42;;;5.60;99.90;;;5.59;100.00;99789.78;5096064;28;20096;-67
2023/12/05 04:12:17;;;;;;;37.25;28.63;;;5.50;99.90;;;5.57;100.00;99794.16;5114359;28;20054;-67
2023/12/05 04:14:45;;;;;;;40.20;30.95;;;5.50;99.90;;;5.53;100.00;99795.03;5114023;28;20043;-67
2023/12/05 04:17:14;;;;;;;38.47;29.10;;;5.50;99.90;;;5.58;100.00;99797.63;5114318;28;20043;-66
2023/12/05 04:19:42;;;;;;;37.03;29.00;;;5.50;99.90;;;5.38;100.00;99768.84;5114216;28;20075;-67
2023/12/05 04:22:10;;;;;;;39.28;29.58;;;5.50;99.90;;;5.49;100.00;99802.03;5113872;28;20455;-67
2023/12/05 04:24:39;;;;;;;39.78;29.35;;;5.40;99.90;;;5.50;100.00;99798.53;5113871;28;20505;-66
2023/12/05 04:27:09;;;;;;;41.35;31.77;;;5.40;99.90;;;5.51;100.00;99804.66;5113792;28;20104;-66
2023/12/05 04:29:37;;;;;;;35.65;27.75;;;5.40;99.90;;;5.59;100.00;99810.78;5114130;28;20047;-67
2023/12/05 04:32:06;;;;;;;38.67;28.55;;;5.50;99.90;;;5.50;100.00;99813.38;5113603;28;20100;-68
2023/12/05 04:34:35;;;;;;;36.45;27.77;;;5.50;99.90;;;5.53;100.00;99813.41;5114029;28;20052;-67
2023/12/05 04:37:05;;;;;;;39.75;29.27;;;5.50;99.90;;;5.53;100.00;99815.13;5113683;28;20050;-67
2023/12/05 04:39:33;;;;;;;38.50;29.00;;;5.50;99.90;;;5.45;100.00;99820.38;5094686;28;20049;-67
2023/12/05 04:42:01;;;;;;;35.35;28.17;;;5.40;99.90;;;5.52;100.00;99816.03;5113549;28;20518;-67
2023/12/05 04:44:31;;;;;;;39.17;28.20;;;5.40;99.90;;;5.50;100.00;99816.00;5113769;28;20521;-67
2023/12/05 04:46:59;;;;;;;36.65;27.83;;;5.50;99.90;;;5.50;100.00;99819.50;5113803;28;20044;-67
2023/12/05 04:49:28;;;;;;;36.03;28.13;;;5.40;99.90;;;5.46;100.00;99809.91;5113420;28;20064;-67
2023/12/05 04:51:57;;;;;;;39.80;29.38;;;5.40;99.90;;;5.48;100.00;99817.75;5113313;28;20035;-67
2023/12/05 04:54:25;;;;;;;35.20;27.70;;;5.40;99.90;;;5.47;100.00;99826.50;5113354;28;20039;-67
2023/12/05 04:56:53;;;;;;;35.92;27.55;;;5.40;99.90;;;5.51;100.00;99825.63;5113265;28;20040;-67
2023/12/05 04:59:22;;;;;;;36.33;27.23;;;5.40;99.90;;;5.46;100.00;99827.38;5113285;28;20047;-67
2023/12/05 05:01:52;;;;;;;37.65;28.17;;;5.40;99.90;;;5.37;100.00;99828.25;5113231;28;20396;-67
2023/12/05 05:04:20;;;;;;;37.92;28.85;;;5.30;99.90;;;5.47;100.00;99826.50;5113779;28;20047;-67
2023/12/05 05:06:49;;;;;;;38.72;28.70;;;5.40;99.90;;;5.50;100.00;99831.75;5112947;28;20051;-67
2023/12/05 05:09:17;;;;;;;39.78;29.70;;;5.40;99.90;;;5.47;100.00;99834.38;5113141;28;20081;-67
2023/12/05 05:11:46;;;;;;;36.90;28.73;;;5.40;99.90;;;5.53;100.00;99840.47;5095034;28;20047;-67
2023/12/05 05:14:14;;;;;;;42.95;30.98;;;5.50;99.90;;;5.38;100.00;99802.94;5113354;28;20097;-67
2023/12/05 05:16:43;;;;;;;44.00;31.88;;;5.50;99.90;;;5.53;100.00;99843.97;5113586;28;20049;-67
2023/12/05 05:19:12;;;;;;;45.17;33.80;;;5.50;99.90;;;5.44;100.00;99845.72;5112991;28;20500;-67
2023/12/05 05:21:41;;;;;;;48.08;34.28;;;5.40;99.90;;;5.48;100.00;99852.72;5094998;28;20151;-67
2023/12/05 05:24:09;;;;;;;44.88;32.95;;;5.40;99.90;;;5.55;100.00;99852.72;5112950;28;20502;-67
2023/12/05 05:26:38;;;;;;;45.10;32.55;;;5.50;99.90;;;5.44;100.00;99861.47;5112920;28;20400;-67
2023/12/05 05:29:06;;;;;;;46.13;32.63;;;5.40;99.90;;;5.46;100.00;99856.22;5112937;28;20401;-67
2023/12/05 05:31:37;;;;;;;48.35;33.65;;;5.40;99.90;;;5.52;100.00;99853.59;5113256;28;20058;-67
2023/12/05 05:34:05;;;;;;;48.50;34.35;;;5.40;99.90;;;5.40;100.00;99859.72;5113081;28;20070;-67
2023/12/05 05:36:35;;;;;;;49.20;34.15;;;5.40;99.90;;;5.14;100.00;99834.38;5112817;28;20395;-67
2023/12/05 05:39:04;;;;;;;50.08;34.13;;;5.30;99.90;;;5.34;100.00;99861.47;5113148;28;20070;-67
2023/12/05 05:41:33;;;;;;;48.45;34.00;;;5.30;99.90;;;5.32;100.00;99857.97;5113151;28;20040;-67
2023/12/05 05:44:02;;;;;;;54.60;35.00;;;5.30;99.90;;;5.21;100.00;99854.47;5112772;28;20040;-67
2023/12/05 05:46:30;;;;;;;47.17;34.08;;;5.30;99.90;;;5.27;100.00;99868.47;5112757;28;20434;-67
2023/12/05 05:48:59;;;;;;;49.38;34.78;;;5.20;99.90;;;5.33;100.00;99857.97;5112791;28;20044;-67
2023/12/05 05:51:27;;;;;;;52.30;35.43;;;5.30;99.90;;;5.48;100.00;99880.69;5116630;28;20044;-67
2023/12/05 05:53:58;;;;;;;52.63;34.95;;;5.40;99.90;;;5.52;100.00;99879.81;5116634;28;20135;-67
2023/12/05 05:56:27;;;;;;;50.42;35.20;;;5.50;99.90;;;4.70;100.00;99740.06;5116768;28;20047;-67
2023/12/05 05:58:56;;;;;;;48.13;34.55;;;5.50;99.90;;;5.48;100.00;99872.81;5098611;28;20051;-67
2023/12/05 06:01:24;;;;;;;51.53;34.83;;;5.40;99.90;;;5.55;100.00;99878.94;5117166;28;20132;-67
2023/12/05 06:03:52;;;;;;;50.33;35.17;;;5.50;99.90;;;5.59;100.00;99878.97;5116811;28;20447;-67
2023/12/05 06:06:21;;;;;;;53.67;35.15;;;5.50;99.90;;;5.53;100.00;99881.56;5116999;28;20487;-67
2023/12/05 06:08:50;;;;;;;49.88;34.28;;;5.50;99.90;;;5.59;100.00;99891.19;5116473;28;20047;-67
2023/12/05 06:11:20;;;;;;;52.67;36.75;;;5.50;99.90;;;5.56;100.00;99886.81;5116909;28;20055;-67
2023/12/05 06:13:48;;;;;;;52.05;36.53;;;5.50;99.90;;;5.57;100.00;99887.69;5098415;28;20052;-67
2023/12/05 06:16:16;;;;;;;52.00;34.90;;;5.50;99.90;;;5.62;100.00;99899.03;5098262;28;20544;-67
2023/12/05 06:18:45;;;;;;;50.90;35.53;;;5.60;99.90;;;5.62;100.00;99896.41;5116565;28;20546;-67
2023/12/05 06:21:13;;;;;;;51.78;34.58;;;5.60;99.90;;;5.56;100.00;99901.66;5098182;28;20550;-67
2023/12/05 06:23:42;;;;;;;53.33;35.45;;;5.50;99.90;;;5.61;100.00;99907.78;5116218;28;20143;-67
2023/12/05 06:26:10;;;;;;;51.17;34.80;;;5.50;99.90;;;5.50;100.00;99902.53;5116733;28;20047;-67
2023/12/05 06:28:40;;;;;;;48.13;33.17;;;5.50;99.90;;;5.62;100.00;99907.78;5116089;28;20044;-67
2023/12/05 06:31:08;;;;;;;49.13;34.20;;;5.60;99.90;;;5.50;100.00;99907.78;5116925;28;20395;-67
2023/12/05 06:33:37;;;;;;;56.25;36.17;;;5.50;99.90;;;5.43;100.00;99913.91;5115928;28;20032;-66
2023/12/05 06:36:07;;;;;;;53.78;35.47;;;5.40;99.90;;;5.27;100.00;99910.41;5115938;28;20047;-67
2023/12/05 06:38:35;;;;;;;49.60;33.07;;;5.30;99.90;;;5.35;100.00;99918.25;5097929;28;20438;-67
2023/12/05 06:41:04;;;;;;;48.97;34.17;;;5.30;99.90;;;5.40;100.00;99914.78;5115918;28;20043;-67
2023/12/05 06:43:33;;;;;;;48.67;32.90;;;5.30;99.90;;;5.45;100.00;99925.28;5116421;28;20043;-67
2023/12/05 06:46:03;;;;;;;44.70;31.95;;;5.40;99.90;;;5.46;100.00;99933.13;5115737;28;20048;-67
2023/12/05 06:48:31;;;;;;;47.00;33.35;;;5.40;99.90;;;5.33;100.00;99926.13;5116053;28;20500;-67
2023/12/05 06:51:00;;;;;;;48.17;32.42;;;5.30;99.90;;;5.21;100.00;99915.63;5115649;28;20044;-67
2023/12/05 06:53:28;;;;;;;49.13;33.53;;;5.30;99.90;;;5.38;100.00;99937.50;5115522;28;20079;-67
2023/12/05 06:55:59;;;;;;;49.83;34.00;;;5.30;99.90;;;5.45;100.00;99951.50;5115920;28;20053;-67
2023/12/05 06:58:27;;;;;;;47.22;33.20;;;5.40;99.90;;;5.43;100.00;99950.63;5115574;28;20092;-67
2023/12/05 07:00:55;;;;;;;50.00;34.10;;;5.40;99.90;;;5.48;100.00;99960.22;5115023;28;20531;-67
2023/12/05 07:03:26;;;;;;;51.17;36.17;;;5.40;99.90;;;5.49;100.00;99959.38;5114920;28;20039;-67
2023/12/05 07:05:55;;;;;;;48.38;33.63;;;5.50;99.90;;;5.58;100.00;99966.34;5115565;28;20067;-67
2023/12/05 07:08:24;;;;;;;54.85;36.63;;;5.50;99.90;;;5.69;100.00;99977.72;5115242;28;20043;-67
2023/12/05 07:10:52;;;;;;;50.47;34.03;;;5.60;99.90;;;5.55;100.00;99970.72;5115219;28;20043;-67
2023/12/05 07:13:21;;;;;;;48.60;33.53;;;5.60;99.90;;;5.56;100.00;99978.59;5115627;28;20120;-67
2023/12/05 07:15:49;;;;;;;52.13;35.88;;;5.50;99.90;;;5.57;100.00;99979.47;5097028;28;20083;-67
2023/12/05 07:18:17;;;;;;;50.47;35.28;;;5.50;99.90;;;5.49;100.00;99974.22;5115035;28;20039;-67
2023/12/05 07:20:47;;;;;;;48.15;34.13;;;5.50;99.90;;;5.56;100.00;99983.84;5115038;28;20071;-67
2023/12/05 07:23:16;;;;;;;52.13;33.63;;;5.50;99.90;;;5.44;100.00;99978.56;5115324;28;20047;-67
2023/12/05 07:25:44;;;;;;;54.17;36.23;;;5.40;99.90;;;5.45;100.00;99983.84;5115001;28;20051;-67
2023/12/05 07:28:13;;;;;;;50.60;34.65;;;5.40;99.90;;;5.42;100.00;99988.19;5114982;28;20040;-67
2023/12/05 07:30:41;;;;;;;56.85;36.90;;;5.40;99.90;;;5.45;100.00;99982.97;5115147;28;20067;-67
2023/12/05 07:33:10;;;;;;;52.58;35.83;;;5.40;99.90;;;5.58;100.00;99995.22;5096843;28;20126;-67
2023/12/05 07:35:38;;;;;;;48.28;32.97;;;5.50;99.90;;;5.63;100.00;100006.59;5115065;28;20044;-67
2023/12/05 07:38:08;;;;;;;49.03;33.23;;;5.50;99.90;;;5.65;100.00;100006.59;5096774;28;20075;-67
2023/12/05 07:40:36;;;;;;;52.13;34.20;;;5.50;99.90;;;5.67;100.00;100003.06;5114750;28;20100;-66
2023/12/05 07:43:05;;;;;;;49.70;34.53;;;5.60;99.90;;;5.66;100.00;100011.84;5114578;28;20061;-66
2023/12/05 07:45:34;;;;;;;50.40;34.13;;;5.60;99.90;;;5.68;100.00;100019.69;5114545;28;20035;-67
2023/12/05 07:48:03;;;;;;;55.25;35.60;;;5.60;99.90;;;5.65;100.00;100012.72;5114697;28;20035;-65
2023/12/05 07:50:31;;;;;;;50.45;34.72;;;5.60;99.90;;;5.59;100.00;100028.44;5114492;28;20071;-64
2023/12/05 07:52:59;;;;;;;50.40;35.75;;;5.60;99.90;;;5.64;100.00;100029.31;5114903;28;20051;-65
2023/12/05 07:55:29;;;;;;;53.42;35.25;;;5.60;99.90;;;5.67;100.00;100033.69;5114373;28;20040;-67
2023/12/05 07:57:58;;;;;;;53.35;36.72;;;5.60;99.90;;;5.76;100.00;100028.47;5114396;28;20093;-66
2023/12/05 08:00:27;;;;;;;56.65;37.63;;;5.70;99.90;;;5.70;100.00;100039.81;5114303;28;20043;-68
2023/12/05 08:02:57;;;;;;;55.70;36.70;;;5.60;99.90;;;5.62;100.00;100019.69;5114183;28;20047;-66
2023/12/05 08:05:27;;;;;;;55.85;38.05;;;5.70;99.90;;;5.63;100.00;100047.69;5095834;28;20128;-67
2023/12/05 08:07:56;;;;;;;53.58;35.83;;;5.60;99.90;;;5.71;100.00;100049.44;5114125;28;20067;-66
2023/12/05 08:10:25;;;;;;;53.90;35.60;;;5.70;99.90;;;5.71;100.00;100052.06;5114389;28;20537;-67
2023/12/05 08:12:55;;;;;;;56.08;36.78;;;5.70;99.90;;;5.76;100.00;100059.94;5113918;28;20070;-66
2023/12/05 08:15:24;;;;;;;55.33;35.83;;;5.70;99.90;;;5.74;100.00;100057.31;5114232;28;20080;-67
2023/12/05 08:17:52;;;;;;;55.15;36.33;;;5.70;99.90;;;5.85;100.00;100062.59;5114104;28;20050;-66
2023/12/05 08:20:25;;;;;;;50.65;35.72;;;5.80;99.90;;;5.89;100.00;100069.59;5114000;28;20499;-65
2023/12/05 08:22:54;;;;;;;50.58;35.47;;;5.80;99.90;;;5.77;100.00;100059.94;5114279;28;20036;-66
2023/12/05 08:25:22;;;;;;;55.85;36.72;;;5.80;99.90;;;5.87;100.00;100059.13;5113757;28;20036;-68
2023/12/05 08:27:51;;;;;;;54.38;36.08;;;5.80;99.90;;;5.85;100.00;100073.09;5113971;28;20047;-68
2023/12/05 08:30:21;;;;;;;56.63;36.17;;;5.80;99.90;;;5.82;100.00;100067.81;5114308;28;20124;-67
2023/12/05 08:32:49;;;;;;;57.55;36.17;;;5.70;99.90;;;5.82;100.00;100071.34;5095331;28;20123;-63
2023/12/05 08:35:18;;;;;;;56.13;36.15;;;5.80;99.90;;;5.78;100.00;100068.69;5113639;28;20039;-64
2023/12/05 08:37:47;;;;;;;61.72;38.15;;;5.80;99.90;;;5.90;100.00;100077.50;5113869;28;20104;-64
2023/12/05 08:40:17;;;;;;;57.03;37.60;;;5.80;99.90;;;5.97;100.00;100084.50;5114138;28;20058;-64
2023/12/05 08:42:45;;;;;;;60.22;38.15;;;5.90;99.90;;;5.95;100.00;100088.88;5095490;28;20039;-64
2023/12/05 08:45:14;;;;;;;56.55;37.53;;;5.90;99.90;;;5.93;100.00;100089.72;5113719;28;20051;-66
2023/12/05 08:47:44;;;;;;;55.50;37.75;;;5.90;99.90;;;5.94;100.00;100097.59;5113743;28;20047;-69
2023/12/05 08:50:12;;;;;;;63.45;39.28;;;5.90;99.90;;;5.91;100.00;100100.22;5113753;28;20111;-66
2023/12/05 08:52:44;;;;;;;62.47;38.30;;;5.90;99.90;;;5.87;100.00;100103.72;5113454;28;20088;-68
2023/12/05 08:55:14;;;;;;;59.30;39.20;;;5.80;99.90;;;5.86;100.00;100108.97;5113243;28;20400;-68
2023/12/05 08:57:42;;;;;;;57.17;37.65;;;5.80;99.90;;;5.88;100.00;100109.84;5113228;28;20085;-67
2023/12/05 09:00:12;;;;;;;55.72;35.22;;;5.80;99.90;;;5.90;100.00;100105.50;5113542;28;20127;-68
2023/12/05 09:02:40;;;;;;;60.70;37.03;;;5.80;99.90;;;5.92;100.00;100109.00;5113484;28;20051;-70
2023/12/05 09:05:10;;;;;;;60.47;37.25;;;5.80;99.90;;;5.88;100.00;100118.63;5113397;28;20408;-68
2023/12/05 09:07:39;;;;;;;57.53;37.85;;;5.80;99.90;;;5.85;100.00;100105.47;5113332;28;20051;-68
2023/12/05 09:10:08;;;;;;;57.22;35.30;;;5.80;99.90;;;5.93;100.00;100108.09;5113168;28;20100;-68
2023/12/05 09:12:37;;;;;;;58.42;36.10;;;5.80;99.90;;;5.82;100.00;100108.06;5113594;28;20104;-69
2023/12/05 09:15:06;;;;;;;58.78;37.42;;;5.80;99.90;;;5.79;100.00;100113.28;5112919;28;20039;-69
2023/12/05 09:17:34;;;;;;;62.40;37.83;;;5.70;99.90;;;5.88;100.00;100120.34;5113028;28;20062;-68
2023/12/05 09:20:04;;;;;;;58.78;37.45;;;5.80;99.90;;;5.84;100.00;100119.47;5113653;28;20040;-68
2023/12/05 09:22:33;;;;;;;62.65;39.38;;;5.80;99.90;;;5.89;100.00;100122.09;5113270;28;20051;-68
2023/12/05 09:25:02;;;;;;;63.58;38.22;;;5.80;99.90;;;5.92;100.00;100133.47;5094351;28;20051;-69
2023/12/05 09:27:30;;;;;;;63.30;38.50;;;5.80;99.90;;;5.96;100.00;100134.38;5094932;28;20493;-68
2023/12/05 09:29:59;;;;;;;58.67;38.50;;;5.90;99.90;;;5.96;100.00;100137.84;5094848;28;20052;-68
2023/12/05 09:32:27;;;;;;;64.13;39.25;;;5.90;99.90;;;5.98;100.00;100143.97;5112689;28;20063;-69
2023/12/05 09:34:56;;;;;;;63.10;37.35;;;5.90;99.90;;;6.03;100.00;100142.25;5112938;28;20119;-69
2023/12/05 09:37:24;;;;;;;58.28;36.47;;;5.90;99.90;;;5.96;100.00;100143.09;5112868;28;20079;-68
2023/12/05 09:39:54;;;;;;;62.95;36.25;;;5.90;99.90;;;5.87;99.72;100150.97;5112782;28;20488;-68
2023/12/05 09:42:26;;;;;;;58.47;36.13;;;5.90;99.90;;;5.95;100.00;100158.84;5113061;28;20120;-68
2023/12/05 09:44:56;;;;;;;53.75;35.17;;;5.90;99.90;;;5.93;99.82;100153.59;5112742;28;20047;-69
2023/12/05 09:47:29;;;;;;;57.43;36.73;;;5.90;99.90;;;5.99;99.88;100166.75;5112660;28;20040;-68
2023/12/05 09:49:57;;;;;;;59.40;35.88;;;5.90;99.90;;;5.97;99.81;100178.97;5112940;28;20406;-68
2023/12/05 09:52:28;;;;;;;53.00;34.30;;;5.90;99.90;;;5.97;99.69;100183.34;5112956;28;20050;-68
2023/12/05 09:54:59;;;;;;;57.08;36.67;;;5.90;99.90;;;6.00;99.67;100176.34;5094700;28;20048;-68
2023/12/05 09:57:29;;;;;;;57.78;36.38;;;5.90;99.90;;;5.92;99.36;100185.94;5112958;28;20046;-68
2023/12/05 09:59:58;;;;;;;56.67;34.85;;;5.90;99.90;;;5.96;99.43;100187.72;5112641;28;20035;-68
2023/12/05 10:02:27;;;;;;;58.60;36.30;;;5.90;99.90;;;6.00;99.88;100189.47;5094879;28;20445;-68
2023/12/05 10:04:59;;;;;;;68.43;38.35;;;5.90;99.90;;;5.99;99.89;100192.09;5112615;28;20492;-67
2023/12/05 10:07:29;;;;;;;61.65;36.42;;;5.90;99.90;;;5.99;99.53;100187.75;5094349;28;20052;-69
2023/12/05 10:10:00;;;;;;;59.25;36.65;;;6.00;99.90;;;5.84;99.67;100190.31;5112542;28;20045;-68
2023/12/05 10:12:29;;;;;;;59.30;36.42;;;5.80;99.90;;;5.93;100.00;100208.72;5094858;28;20058;-68
2023/12/05 10:14:58;;;;;;;64.10;37.40;;;5.80;99.90;;;6.01;99.84;100208.72;5112667;28;20046;-68
2023/12/05 10:17:28;;;;;;;61.85;37.70;;;5.90;99.90;;;6.00;99.73;100207.00;5112487;28;20055;-68
2023/12/05 10:19:57;;;;;;;59.35;37.45;;;6.00;99.90;;;5.97;99.55;100204.34;5112481;28;20559;-68